sensor_id;sensor_type;location;lat;lon;timestamp;temperature;humidity
64833;HTU21D;51290;45.060;38.948;2023-04-25T00:01:39;12.48;78.05
64833;HTU21D;51290;45.060;38.948;2023-04-25T00:04:05;12.46;78.05
64833;HTU21D;51290;45.060;38.948;2023-04-25T00:06:32;12.45;78.04
64833;HTU21D;51290;45.060;38.948;2023-04-25T00:08:58;12.43;77.99
64833;HTU21D;51290;45.060;38.948;2023-04-25T00:11:24;12.38;77.90
64833;HTU21D;51290;45.060;38.948;2023-04-25T00:13:50;12.33;77.79
64833;HTU21D;51290;45.060;38.948;2023-04-25T00:16:20;12.23;77.70
64833;HTU21D;51290;45.060;38.948;2023-04-25T00:18:45;12.12;77.79
64833;HTU21D;51290;45.060;38.948;2023-04-25T00:21:18;12.02;77.88
64833;HTU21D;51290;45.060;38.948;2023-04-25T00:23:45;11.94;78.02
64833;HTU21D;51290;45.060;38.948;2023-04-25T00:26:11;11.90;78.14
64833;HTU21D;51290;45.060;38.948;2023-04-25T00:28:38;11.89;78.23
64833;HTU21D;51290;45.060;38.948;2023-04-25T00:31:04;11.89;78.24
64833;HTU21D;51290;45.060;38.948;2023-04-25T00:33:30;11.92;78.24
64833;HTU21D;51290;45.060;38.948;2023-04-25T00:35:56;11.94;78.18
64833;HTU21D;51290;45.060;38.948;2023-04-25T00:38:22;11.94;78.08
64833;HTU21D;51290;45.060;38.948;2023-04-25T00:40:48;11.94;78.05
64833;HTU21D;51290;45.060;38.948;2023-04-25T00:43:14;11.94;78.03
64833;HTU21D;51290;45.060;38.948;2023-04-25T00:45:40;11.93;77.98
64833;HTU21D;51290;45.060;38.948;2023-04-25T00:48:08;11.92;77.94
64833;HTU21D;51290;45.060;38.948;2023-04-25T00:50:35;11.90;77.92
64833;HTU21D;51290;45.060;38.948;2023-04-25T00:53:01;11.87;77.93
64833;HTU21D;51290;45.060;38.948;2023-04-25T00:55:29;11.84;77.92
64833;HTU21D;51290;45.060;38.948;2023-04-25T00:57:57;11.81;77.92
64833;HTU21D;51290;45.060;38.948;2023-04-25T01:00:23;11.77;77.96
64833;HTU21D;51290;45.060;38.948;2023-04-25T01:02:49;11.78;78.01
64833;HTU21D;51290;45.060;38.948;2023-04-25T01:05:16;11.78;78.05
64833;HTU21D;51290;45.060;38.948;2023-04-25T01:07:42;11.79;78.01
64833;HTU21D;51290;45.060;38.948;2023-04-25T01:10:09;11.81;78.03
64833;HTU21D;51290;45.060;38.948;2023-04-25T01:12:35;11.84;78.00
64833;HTU21D;51290;45.060;38.948;2023-04-25T01:15:01;11.86;77.98
64833;HTU21D;51290;45.060;38.948;2023-04-25T01:17:28;11.88;77.90
64833;HTU21D;51290;45.060;38.948;2023-04-25T01:19:54;11.88;77.87
64833;HTU21D;51290;45.060;38.948;2023-04-25T01:22:21;11.90;77.86
64833;HTU21D;51290;45.060;38.948;2023-04-25T01:24:47;11.90;77.87
64833;HTU21D;51290;45.060;38.948;2023-04-25T01:27:13;11.91;77.83
64833;HTU21D;51290;45.060;38.948;2023-04-25T01:29:39;11.90;77.75
64833;HTU21D;51290;45.060;38.948;2023-04-25T01:32:06;11.88;77.73
64833;HTU21D;51290;45.060;38.948;2023-04-25T01:34:32;11.87;77.79
64833;HTU21D;51290;45.060;38.948;2023-04-25T01:36:59;11.86;77.83
64833;HTU21D;51290;45.060;38.948;2023-04-25T01:39:28;11.87;77.89
64833;HTU21D;51290;45.060;38.948;2023-04-25T01:41:54;11.88;77.88
64833;HTU21D;51290;45.060;38.948;2023-04-25T01:44:20;11.87;77.82
64833;HTU21D;51290;45.060;38.948;2023-04-25T01:46:47;11.88;77.81
64833;HTU21D;51290;45.060;38.948;2023-04-25T01:49:13;11.88;77.76
64833;HTU21D;51290;45.060;38.948;2023-04-25T01:51:41;11.87;77.70
64833;HTU21D;51290;45.060;38.948;2023-04-25T01:54:08;11.86;77.69
64833;HTU21D;51290;45.060;38.948;2023-04-25T01:56:37;11.84;77.69
64833;HTU21D;51290;45.060;38.948;2023-04-25T01:59:05;11.83;77.72
64833;HTU21D;51290;45.060;38.948;2023-04-25T02:01:50;11.82;77.81
64833;HTU21D;51290;45.060;38.948;2023-04-25T02:04:24;11.77;77.82
64833;HTU21D;51290;45.060;38.948;2023-04-25T02:06:51;11.76;77.96
64833;HTU21D;51290;45.060;38.948;2023-04-25T02:09:17;11.75;77.97
64833;HTU21D;51290;45.060;38.948;2023-04-25T02:11:49;11.73;77.98
64833;HTU21D;51290;45.060;38.948;2023-04-25T02:14:53;11.73;77.97
64833;HTU21D;51290;45.060;38.948;2023-04-25T02:17:40;11.72;77.98
64833;HTU21D;51290;45.060;38.948;2023-04-25T02:20:06;11.72;77.99
64833;HTU21D;51290;45.060;38.948;2023-04-25T02:22:33;11.72;78.04
64833;HTU21D;51290;45.060;38.948;2023-04-25T02:24:59;11.73;78.03
64833;HTU21D;51290;45.060;38.948;2023-04-25T02:27:25;11.74;78.03
64833;HTU21D;51290;45.060;38.948;2023-04-25T02:29:51;11.77;78.06
64833;HTU21D;51290;45.060;38.948;2023-04-25T02:32:17;11.78;78.04
64833;HTU21D;51290;45.060;38.948;2023-04-25T02:34:43;11.81;78.03
64833;HTU21D;51290;45.060;38.948;2023-04-25T02:37:09;11.82;78.03
64833;HTU21D;51290;45.060;38.948;2023-04-25T02:39:35;11.83;78.01
64833;HTU21D;51290;45.060;38.948;2023-04-25T02:42:01;11.84;77.99
64833;HTU21D;51290;45.060;38.948;2023-04-25T02:44:29;11.86;77.97
64833;HTU21D;51290;45.060;38.948;2023-04-25T02:46:55;11.87;77.95
64833;HTU21D;51290;45.060;38.948;2023-04-25T02:49:23;11.90;77.96
64833;HTU21D;51290;45.060;38.948;2023-04-25T02:51:49;11.94;77.95
64833;HTU21D;51290;45.060;38.948;2023-04-25T02:54:15;11.99;77.88
64833;HTU21D;51290;45.060;38.948;2023-04-25T02:56:45;12.03;77.85
64833;HTU21D;51290;45.060;38.948;2023-04-25T02:59:17;12.06;77.85
64833;HTU21D;51290;45.060;38.948;2023-04-25T03:01:42;12.13;77.82
64833;HTU21D;51290;45.060;38.948;2023-04-25T03:04:08;12.17;77.78
64833;HTU21D;51290;45.060;38.948;2023-04-25T03:06:35;12.19;77.76
64833;HTU21D;51290;45.060;38.948;2023-04-25T03:09:01;12.23;77.72
64833;HTU21D;51290;45.060;38.948;2023-04-25T03:11:27;12.28;77.69
64833;HTU21D;51290;45.060;38.948;2023-04-25T03:13:53;12.33;77.63
64833;HTU21D;51290;45.060;38.948;2023-04-25T03:16:20;12.36;77.58
64833;HTU21D;51290;45.060;38.948;2023-04-25T03:18:46;12.40;77.53
64833;HTU21D;51290;45.060;38.948;2023-04-25T03:21:12;12.41;77.48
64833;HTU21D;51290;45.060;38.948;2023-04-25T03:23:38;12.42;77.44
64833;HTU21D;51290;45.060;38.948;2023-04-25T03:26:04;12.43;77.39
64833;HTU21D;51290;45.060;38.948;2023-04-25T03:28:30;12.42;77.38
64833;HTU21D;51290;45.060;38.948;2023-04-25T03:30:56;12.43;77.37
64833;HTU21D;51290;45.060;38.948;2023-04-25T03:33:23;12.45;77.37
64833;HTU21D;51290;45.060;38.948;2023-04-25T03:35:49;12.48;77.38
64833;HTU21D;51290;45.060;38.948;2023-04-25T03:38:16;12.52;77.39
64833;HTU21D;51290;45.060;38.948;2023-04-25T03:40:42;12.65;77.46
64833;HTU21D;51290;45.060;38.948;2023-04-25T03:43:25;13.01;77.24
64833;HTU21D;51290;45.060;38.948;2023-04-25T03:46:00;13.22;76.63
64833;HTU21D;51290;45.060;38.948;2023-04-25T03:48:26;13.33;76.34
64833;HTU21D;51290;45.060;38.948;2023-04-25T03:50:53;13.36;76.15
64833;HTU21D;51290;45.060;38.948;2023-04-25T03:53:20;13.38;76.04
64833;HTU21D;51290;45.060;38.948;2023-04-25T03:56:06;13.38;76.02
64833;HTU21D;51290;45.060;38.948;2023-04-25T03:58:35;13.38;76.02
64833;HTU21D;51290;45.060;38.948;2023-04-25T04:01:01;13.39;75.98
64833;HTU21D;51290;45.060;38.948;2023-04-25T04:03:34;13.36;75.89
64833;HTU21D;51290;45.060;38.948;2023-04-25T04:06:05;13.36;75.94
64833;HTU21D;51290;45.060;38.948;2023-04-25T04:08:35;13.38;75.98
64833;HTU21D;51290;45.060;38.948;2023-04-25T04:11:02;13.38;76.02
64833;HTU21D;51290;45.060;38.948;2023-04-25T04:13:29;13.46;76.05
64833;HTU21D;51290;45.060;38.948;2023-04-25T04:15:56;13.52;76.03
64833;HTU21D;51290;45.060;38.948;2023-04-25T04:18:23;13.64;76.02
64833;HTU21D;51290;45.060;38.948;2023-04-25T04:20:49;13.78;75.95
64833;HTU21D;51290;45.060;38.948;2023-04-25T04:23:16;13.94;75.79
64833;HTU21D;51290;45.060;38.948;2023-04-25T04:25:42;14.11;75.68
64833;HTU21D;51290;45.060;38.948;2023-04-25T04:28:27;14.32;75.28
64833;HTU21D;51290;45.060;38.948;2023-04-25T04:31:12;14.45;74.95
64833;HTU21D;51290;45.060;38.948;2023-04-25T04:33:38;14.50;74.83
64833;HTU21D;51290;45.060;38.948;2023-04-25T04:36:06;14.54;74.81
64833;HTU21D;51290;45.060;38.948;2023-04-25T04:38:33;14.63;74.86
64833;HTU21D;51290;45.060;38.948;2023-04-25T04:41:02;14.74;74.54
64833;HTU21D;51290;45.060;38.948;2023-04-25T04:43:52;14.84;74.38
64833;HTU21D;51290;45.060;38.948;2023-04-25T04:46:44;14.94;74.15
64833;HTU21D;51290;45.060;38.948;2023-04-25T04:49:38;15.00;74.05
64833;HTU21D;51290;45.060;38.948;2023-04-25T04:52:29;15.08;73.78
64833;HTU21D;51290;45.060;38.948;2023-04-25T04:55:15;15.10;73.77
64833;HTU21D;51290;45.060;38.948;2023-04-25T04:58:04;15.17;73.67
64833;HTU21D;51290;45.060;38.948;2023-04-25T05:00:31;15.25;73.64
64833;HTU21D;51290;45.060;38.948;2023-04-25T05:03:29;15.34;73.37
64833;HTU21D;51290;45.060;38.948;2023-04-25T05:06:07;15.48;73.02
64833;HTU21D;51290;45.060;38.948;2023-04-25T05:08:44;15.61;72.89
64833;HTU21D;51290;45.060;38.948;2023-04-25T05:11:19;15.72;72.41
64833;HTU21D;51290;45.060;38.948;2023-04-25T05:14:02;15.76;71.86
64833;HTU21D;51290;45.060;38.948;2023-04-25T05:16:47;15.69;71.61
64833;HTU21D;51290;45.060;38.948;2023-04-25T05:19:51;15.57;71.68
64833;HTU21D;51290;45.060;38.948;2023-04-25T05:22:43;15.46;71.87
64833;HTU21D;51290;45.060;38.948;2023-04-25T05:25:13;15.39;71.97
64833;HTU21D;51290;45.060;38.948;2023-04-25T05:27:58;15.33;72.03
64833;HTU21D;51290;45.060;38.948;2023-04-25T05:30:50;15.25;71.95
64833;HTU21D;51290;45.060;38.948;2023-04-25T05:33:20;15.15;71.95
64833;HTU21D;51290;45.060;38.948;2023-04-25T05:35:46;15.09;71.98
64833;HTU21D;51290;45.060;38.948;2023-04-25T05:38:13;15.02;72.06
64833;HTU21D;51290;45.060;38.948;2023-04-25T05:41:05;14.95;72.18
64833;HTU21D;51290;45.060;38.948;2023-04-25T05:44:03;14.94;72.34
64833;HTU21D;51290;45.060;38.948;2023-04-25T05:46:42;14.95;72.45
64833;HTU21D;51290;45.060;38.948;2023-04-25T05:49:13;15.02;72.54
64833;HTU21D;51290;45.060;38.948;2023-04-25T05:51:56;15.14;72.56
64833;HTU21D;51290;45.060;38.948;2023-04-25T05:54:40;15.28;72.31
64833;HTU21D;51290;45.060;38.948;2023-04-25T05:57:07;15.40;72.34
64833;HTU21D;51290;45.060;38.948;2023-04-25T05:59:33;15.56;72.25
64833;HTU21D;51290;45.060;38.948;2023-04-25T06:01:59;15.70;72.03
64833;HTU21D;51290;45.060;38.948;2023-04-25T06:04:27;15.81;71.80
64833;HTU21D;51290;45.060;38.948;2023-04-25T06:06:53;15.89;71.42
64833;HTU21D;51290;45.060;38.948;2023-04-25T06:09:21;16.01;71.37
64833;HTU21D;51290;45.060;38.948;2023-04-25T06:11:47;16.16;71.19
64833;HTU21D;51290;45.060;38.948;2023-04-25T06:14:13;16.34;71.17
64833;HTU21D;51290;45.060;38.948;2023-04-25T06:16:45;16.60;70.81
64833;HTU21D;51290;45.060;38.948;2023-04-25T06:19:11;16.82;70.13
64833;HTU21D;51290;45.060;38.948;2023-04-25T06:21:37;17.04;69.41
64833;HTU21D;51290;45.060;38.948;2023-04-25T06:24:03;17.26;68.96
64833;HTU21D;51290;45.060;38.948;2023-04-25T06:26:29;17.49;69.03
64833;HTU21D;51290;45.060;38.948;2023-04-25T06:28:55;17.78;68.92
64833;HTU21D;51290;45.060;38.948;2023-04-25T06:31:22;18.07;68.60
64833;HTU21D;51290;45.060;38.948;2023-04-25T06:33:49;18.30;67.37
64833;HTU21D;51290;45.060;38.948;2023-04-25T06:36:15;18.43;66.81
64833;HTU21D;51290;45.060;38.948;2023-04-25T06:38:43;18.57;67.07
64833;HTU21D;51290;45.060;38.948;2023-04-25T06:41:10;18.81;67.07
64833;HTU21D;51290;45.060;38.948;2023-04-25T06:43:37;19.12;66.59
64833;HTU21D;51290;45.060;38.948;2023-04-25T06:46:16;19.36;66.17
64833;HTU21D;51290;45.060;38.948;2023-04-25T06:48:44;19.48;65.08
64833;HTU21D;51290;45.060;38.948;2023-04-25T06:51:10;19.56;65.17
64833;HTU21D;51290;45.060;38.948;2023-04-25T06:53:39;19.62;64.83
64833;HTU21D;51290;45.060;38.948;2023-04-25T06:56:09;19.71;64.98
64833;HTU21D;51290;45.060;38.948;2023-04-25T06:58:46;19.76;64.02
64833;HTU21D;51290;45.060;38.948;2023-04-25T07:01:32;19.67;63.35
64833;HTU21D;51290;45.060;38.948;2023-04-25T07:04:01;19.57;63.78
64833;HTU21D;51290;45.060;38.948;2023-04-25T07:06:29;19.63;64.22
64833;HTU21D;51290;45.060;38.948;2023-04-25T07:08:55;19.81;63.70
64833;HTU21D;51290;45.060;38.948;2023-04-25T07:11:22;19.94;62.86
64833;HTU21D;51290;45.060;38.948;2023-04-25T07:13:48;19.96;62.82
64833;HTU21D;51290;45.060;38.948;2023-04-25T07:16:16;20.01;62.91
64833;HTU21D;51290;45.060;38.948;2023-04-25T07:18:42;20.04;62.56
64833;HTU21D;51290;45.060;38.948;2023-04-25T07:21:09;20.01;62.31
64833;HTU21D;51290;45.060;38.948;2023-04-25T07:23:36;19.99;62.44
64833;HTU21D;51290;45.060;38.948;2023-04-25T07:26:09;19.94;62.06
64833;HTU21D;51290;45.060;38.948;2023-04-25T07:28:39;19.84;61.92
64833;HTU21D;51290;45.060;38.948;2023-04-25T07:31:05;19.76;61.56
64833;HTU21D;51290;45.060;38.948;2023-04-25T07:33:31;19.69;61.50
64833;HTU21D;51290;45.060;38.948;2023-04-25T07:35:57;19.65;61.22
64833;HTU21D;51290;45.060;38.948;2023-04-25T07:38:24;19.61;61.57
64833;HTU21D;51290;45.060;38.948;2023-04-25T07:40:50;19.66;61.15
64833;HTU21D;51290;45.060;38.948;2023-04-25T07:43:16;19.62;60.64
64833;HTU21D;51290;45.060;38.948;2023-04-25T07:45:52;19.57;60.70
64833;HTU21D;51290;45.060;38.948;2023-04-25T07:48:19;19.55;60.51
64833;HTU21D;51290;45.060;38.948;2023-04-25T07:50:46;19.56;60.35
64833;HTU21D;51290;45.060;38.948;2023-04-25T07:53:13;19.59;60.79
64833;HTU21D;51290;45.060;38.948;2023-04-25T07:55:46;19.68;60.72
64833;HTU21D;51290;45.060;38.948;2023-04-25T07:58:16;19.80;60.84
64833;HTU21D;51290;45.060;38.948;2023-04-25T08:00:48;19.92;60.47
64833;HTU21D;51290;45.060;38.948;2023-04-25T08:03:34;19.96;60.06
64833;HTU21D;51290;45.060;38.948;2023-04-25T08:06:03;19.96;60.15
64833;HTU21D;51290;45.060;38.948;2023-04-25T08:08:31;19.98;59.64
64833;HTU21D;51290;45.060;38.948;2023-04-25T08:10:58;20.01;59.90
64833;HTU21D;51290;45.060;38.948;2023-04-25T08:13:23;20.04;60.02
64833;HTU21D;51290;45.060;38.948;2023-04-25T08:15:50;20.09;59.97
64833;HTU21D;51290;45.060;38.948;2023-04-25T08:18:16;20.06;59.98
64833;HTU21D;51290;45.060;38.948;2023-04-25T08:20:43;20.02;59.76
64833;HTU21D;51290;45.060;38.948;2023-04-25T08:23:11;20.04;59.87
64833;HTU21D;51290;45.060;38.948;2023-04-25T08:25:49;20.09;58.93
64833;HTU21D;51290;45.060;38.948;2023-04-25T08:28:18;20.12;59.36
64833;HTU21D;51290;45.060;38.948;2023-04-25T08:30:45;20.20;59.37
64833;HTU21D;51290;45.060;38.948;2023-04-25T08:33:13;20.27;59.17
64833;HTU21D;51290;45.060;38.948;2023-04-25T08:36:08;20.34;58.92
64833;HTU21D;51290;45.060;38.948;2023-04-25T08:38:34;20.44;58.23
64833;HTU21D;51290;45.060;38.948;2023-04-25T08:41:02;20.42;57.30
64833;HTU21D;51290;45.060;38.948;2023-04-25T08:43:29;20.28;56.47
64833;HTU21D;51290;45.060;38.948;2023-04-25T08:46:00;20.15;56.54
64833;HTU21D;51290;45.060;38.948;2023-04-25T08:48:40;20.11;56.63
64833;HTU21D;51290;45.060;38.948;2023-04-25T08:51:07;20.09;57.13
64833;HTU21D;51290;45.060;38.948;2023-04-25T08:53:34;20.15;57.43
64833;HTU21D;51290;45.060;38.948;2023-04-25T08:56:03;20.20;56.10
64833;HTU21D;51290;45.060;38.948;2023-04-25T08:58:34;20.16;55.97
64833;HTU21D;51290;45.060;38.948;2023-04-25T09:01:02;20.18;56.64
64833;HTU21D;51290;45.060;38.948;2023-04-25T09:03:35;20.30;56.65
64833;HTU21D;51290;45.060;38.948;2023-04-25T09:06:01;20.40;56.57
64833;HTU21D;51290;45.060;38.948;2023-04-25T09:08:27;20.47;56.80
64833;HTU21D;51290;45.060;38.948;2023-04-25T09:10:53;20.51;56.68
64833;HTU21D;51290;45.060;38.948;2023-04-25T09:13:28;20.44;55.23
64833;HTU21D;51290;45.060;38.948;2023-04-25T09:16:23;20.35;55.99
64833;HTU21D;51290;45.060;38.948;2023-04-25T09:19:23;20.31;55.80
64833;HTU21D;51290;45.060;38.948;2023-04-25T09:21:50;20.21;55.25
64833;HTU21D;51290;45.060;38.948;2023-04-25T09:24:30;20.06;55.32
64833;HTU21D;51290;45.060;38.948;2023-04-25T09:26:57;19.97;55.35
64833;HTU21D;51290;45.060;38.948;2023-04-25T09:29:31;19.86;55.40
64833;HTU21D;51290;45.060;38.948;2023-04-25T09:34:46;19.61;55.90
64833;HTU21D;51290;45.060;38.948;2023-04-25T09:40:23;19.25;55.02
64833;HTU21D;51290;45.060;38.948;2023-04-25T09:43:20;19.07;55.64
64833;HTU21D;51290;45.060;38.948;2023-04-25T09:45:49;19.03;55.42
64833;HTU21D;51290;45.060;38.948;2023-04-25T09:48:21;19.01;55.29
64833;HTU21D;51290;45.060;38.948;2023-04-25T09:51:10;18.88;54.96
64833;HTU21D;51290;45.060;38.948;2023-04-25T09:53:42;18.88;55.15
64833;HTU21D;51290;45.060;38.948;2023-04-25T09:56:17;18.93;55.01
64833;HTU21D;51290;45.060;38.948;2023-04-25T09:58:48;18.95;54.79
64833;HTU21D;51290;45.060;38.948;2023-04-25T10:01:16;18.94;55.07
64833;HTU21D;51290;45.060;38.948;2023-04-25T10:04:03;18.99;55.27
64833;HTU21D;51290;45.060;38.948;2023-04-25T10:06:49;19.06;55.00
64833;HTU21D;51290;45.060;38.948;2023-04-25T10:09:19;19.16;55.20
64833;HTU21D;51290;45.060;38.948;2023-04-25T10:11:46;19.30;55.41
64833;HTU21D;51290;45.060;38.948;2023-04-25T10:14:14;19.42;55.35
64833;HTU21D;51290;45.060;38.948;2023-04-25T10:16:41;19.56;54.87
64833;HTU21D;51290;45.060;38.948;2023-04-25T10:19:07;19.71;54.40
64833;HTU21D;51290;45.060;38.948;2023-04-25T10:21:33;19.82;54.02
64833;HTU21D;51290;45.060;38.948;2023-04-25T10:24:00;19.92;54.37
64833;HTU21D;51290;45.060;38.948;2023-04-25T10:26:27;20.06;54.48
64833;HTU21D;51290;45.060;38.948;2023-04-25T10:29:01;20.26;54.57
64833;HTU21D;51290;45.060;38.948;2023-04-25T10:31:29;20.47;54.44
64833;HTU21D;51290;45.060;38.948;2023-04-25T10:33:56;20.65;54.31
64833;HTU21D;51290;45.060;38.948;2023-04-25T10:36:23;20.79;53.87
64833;HTU21D;51290;45.060;38.948;2023-04-25T10:38:50;20.77;53.94
64833;HTU21D;51290;45.060;38.948;2023-04-25T10:41:21;20.69;53.74
64833;HTU21D;51290;45.060;38.948;2023-04-25T10:43:49;20.58;53.87
64833;HTU21D;51290;45.060;38.948;2023-04-25T10:46:25;20.46;53.72
64833;HTU21D;51290;45.060;38.948;2023-04-25T10:48:53;20.34;53.36
64833;HTU21D;51290;45.060;38.948;2023-04-25T10:51:22;20.19;53.45
64833;HTU21D;51290;45.060;38.948;2023-04-25T10:54:08;20.10;53.39
64833;HTU21D;51290;45.060;38.948;2023-04-25T10:56:38;19.99;53.56
64833;HTU21D;51290;45.060;38.948;2023-04-25T10:59:16;19.94;53.97
64833;HTU21D;51290;45.060;38.948;2023-04-25T11:01:51;19.91;54.15
64833;HTU21D;51290;45.060;38.948;2023-04-25T11:04:33;19.88;53.82
64833;HTU21D;51290;45.060;38.948;2023-04-25T11:09:45;19.75;52.75
64833;HTU21D;51290;45.060;38.948;2023-04-25T11:12:11;19.72;52.56
64833;HTU21D;51290;45.060;38.948;2023-04-25T11:14:38;19.70;52.81
64833;HTU21D;51290;45.060;38.948;2023-04-25T11:17:04;19.69;53.13
64833;HTU21D;51290;45.060;38.948;2023-04-25T11:19:31;19.63;53.30
64833;HTU21D;51290;45.060;38.948;2023-04-25T11:22:01;19.63;53.65
64833;HTU21D;51290;45.060;38.948;2023-04-25T11:24:31;19.66;53.58
64833;HTU21D;51290;45.060;38.948;2023-04-25T11:27:02;19.75;53.47
64833;HTU21D;51290;45.060;38.948;2023-04-25T11:29:29;19.82;52.80
64833;HTU21D;51290;45.060;38.948;2023-04-25T11:31:56;19.82;52.48
64833;HTU21D;51290;45.060;38.948;2023-04-25T11:34:26;19.82;52.44
64833;HTU21D;51290;45.060;38.948;2023-04-25T11:36:53;19.76;52.17
64833;HTU21D;51290;45.060;38.948;2023-04-25T11:39:20;19.67;51.73
64833;HTU21D;51290;45.060;38.948;2023-04-25T11:41:46;19.53;52.02
64833;HTU21D;51290;45.060;38.948;2023-04-25T11:44:16;19.42;51.97
64833;HTU21D;51290;45.060;38.948;2023-04-25T11:46:43;19.35;51.96
64833;HTU21D;51290;45.060;38.948;2023-04-25T11:49:09;19.33;52.49
64833;HTU21D;51290;45.060;38.948;2023-04-25T11:51:42;19.38;52.70
64833;HTU21D;51290;45.060;38.948;2023-04-25T11:54:09;19.43;52.88
64833;HTU21D;51290;45.060;38.948;2023-04-25T11:56:35;19.43;52.33
64833;HTU21D;51290;45.060;38.948;2023-04-25T11:59:05;19.40;52.13
64833;HTU21D;51290;45.060;38.948;2023-04-25T12:01:33;19.41;52.17
64833;HTU21D;51290;45.060;38.948;2023-04-25T12:04:11;19.39;51.88
64833;HTU21D;51290;45.060;38.948;2023-04-25T12:06:37;19.30;51.65
64833;HTU21D;51290;45.060;38.948;2023-04-25T12:09:11;19.23;51.91
64833;HTU21D;51290;45.060;38.948;2023-04-25T12:11:46;19.27;52.35
64833;HTU21D;51290;45.060;38.948;2023-04-25T12:14:21;19.31;52.01
64833;HTU21D;51290;45.060;38.948;2023-04-25T12:16:48;19.28;51.76
64833;HTU21D;51290;45.060;38.948;2023-04-25T12:19:16;19.23;51.60
64833;HTU21D;51290;45.060;38.948;2023-04-25T12:21:43;19.16;51.60
64833;HTU21D;51290;45.060;38.948;2023-04-25T12:27:03;19.32;52.36
64833;HTU21D;51290;45.060;38.948;2023-04-25T12:29:32;19.47;52.38
64833;HTU21D;51290;45.060;38.948;2023-04-25T12:31:58;19.56;52.19
64833;HTU21D;51290;45.060;38.948;2023-04-25T12:34:25;19.58;51.81
64833;HTU21D;51290;45.060;38.948;2023-04-25T12:36:52;19.54;51.24
64833;HTU21D;51290;45.060;38.948;2023-04-25T12:39:22;19.54;51.37
64833;HTU21D;51290;45.060;38.948;2023-04-25T12:41:50;19.59;51.11
64833;HTU21D;51290;45.060;38.948;2023-04-25T12:44:16;19.68;51.58
64833;HTU21D;51290;45.060;38.948;2023-04-25T12:46:42;19.86;51.61
64833;HTU21D;51290;45.060;38.948;2023-04-25T12:49:08;19.99;51.27
64833;HTU21D;51290;45.060;38.948;2023-04-25T12:51:35;20.07;51.40
64833;HTU21D;51290;45.060;38.948;2023-04-25T12:54:03;20.11;51.26
64833;HTU21D;51290;45.060;38.948;2023-04-25T12:56:30;20.11;51.07
64833;HTU21D;51290;45.060;38.948;2023-04-25T12:58:56;20.01;50.76
64833;HTU21D;51290;45.060;38.948;2023-04-25T13:01:23;19.90;50.54
64833;HTU21D;51290;45.060;38.948;2023-04-25T13:03:49;19.74;50.82
64833;HTU21D;51290;45.060;38.948;2023-04-25T13:06:16;19.66;51.33
64833;HTU21D;51290;45.060;38.948;2023-04-25T13:08:42;19.66;51.52
64833;HTU21D;51290;45.060;38.948;2023-04-25T13:11:09;19.68;51.41
64833;HTU21D;51290;45.060;38.948;2023-04-25T13:13:35;19.67;51.26
64833;HTU21D;51290;45.060;38.948;2023-04-25T13:16:02;19.61;51.27
64833;HTU21D;51290;45.060;38.948;2023-04-25T13:18:29;19.52;51.12
64833;HTU21D;51290;45.060;38.948;2023-04-25T13:20:56;19.39;51.21
64833;HTU21D;51290;45.060;38.948;2023-04-25T13:23:22;19.29;51.36
64833;HTU21D;51290;45.060;38.948;2023-04-25T13:25:49;19.23;51.35
64833;HTU21D;51290;45.060;38.948;2023-04-25T13:28:15;19.13;51.39
64833;HTU21D;51290;45.060;38.948;2023-04-25T13:30:41;19.00;51.45
64833;HTU21D;51290;45.060;38.948;2023-04-25T13:33:07;18.91;51.75
64833;HTU21D;51290;45.060;38.948;2023-04-25T13:35:35;18.86;51.95
64833;HTU21D;51290;45.060;38.948;2023-04-25T13:38:02;18.84;51.94
64833;HTU21D;51290;45.060;38.948;2023-04-25T13:40:28;18.79;51.70
64833;HTU21D;51290;45.060;38.948;2023-04-25T13:42:56;18.71;51.86
64833;HTU21D;51290;45.060;38.948;2023-04-25T13:45:22;18.65;52.06
64833;HTU21D;51290;45.060;38.948;2023-04-25T13:47:48;18.55;52.20
64833;HTU21D;51290;45.060;38.948;2023-04-25T13:50:14;18.46;52.35
64833;HTU21D;51290;45.060;38.948;2023-04-25T13:52:41;18.35;52.39
64833;HTU21D;51290;45.060;38.948;2023-04-25T13:55:08;18.23;52.49
64833;HTU21D;51290;45.060;38.948;2023-04-25T13:57:35;18.13;52.67
64833;HTU21D;51290;45.060;38.948;2023-04-25T14:00:03;18.03;52.46
64833;HTU21D;51290;45.060;38.948;2023-04-25T14:02:35;17.91;52.36
64833;HTU21D;51290;45.060;38.948;2023-04-25T14:05:01;17.79;52.68
64833;HTU21D;51290;45.060;38.948;2023-04-25T14:07:27;17.72;52.69
64833;HTU21D;51290;45.060;38.948;2023-04-25T14:09:56;17.64;52.73
64833;HTU21D;51290;45.060;38.948;2023-04-25T14:12:25;17.59;52.85
64833;HTU21D;51290;45.060;38.948;2023-04-25T14:14:52;17.55;52.81
64833;HTU21D;51290;45.060;38.948;2023-04-25T14:17:21;17.51;52.81
64833;HTU21D;51290;45.060;38.948;2023-04-25T14:19:47;17.46;52.97
64833;HTU21D;51290;45.060;38.948;2023-04-25T14:22:14;17.44;53.07
64833;HTU21D;51290;45.060;38.948;2023-04-25T14:24:41;17.41;53.19
64833;HTU21D;51290;45.060;38.948;2023-04-25T14:27:07;17.39;53.24
64833;HTU21D;51290;45.060;38.948;2023-04-25T14:29:34;17.36;53.27
64833;HTU21D;51290;45.060;38.948;2023-04-25T14:32:00;17.33;53.22
64833;HTU21D;51290;45.060;38.948;2023-04-25T14:34:26;17.32;53.36
64833;HTU21D;51290;45.060;38.948;2023-04-25T14:36:52;17.30;53.34
64833;HTU21D;51290;45.060;38.948;2023-04-25T14:39:18;17.26;53.30
64833;HTU21D;51290;45.060;38.948;2023-04-25T14:41:44;17.25;53.28
64833;HTU21D;51290;45.060;38.948;2023-04-25T14:44:10;17.23;53.24
64833;HTU21D;51290;45.060;38.948;2023-04-25T14:46:37;17.19;53.33
64833;HTU21D;51290;45.060;38.948;2023-04-25T14:49:03;17.16;53.39
64833;HTU21D;51290;45.060;38.948;2023-04-25T14:51:29;17.11;53.48
64833;HTU21D;51290;45.060;38.948;2023-04-25T14:53:56;17.08;53.44
64833;HTU21D;51290;45.060;38.948;2023-04-25T14:56:22;17.02;53.59
64833;HTU21D;51290;45.060;38.948;2023-04-25T14:58:48;16.98;53.68
64833;HTU21D;51290;45.060;38.948;2023-04-25T15:01:14;16.93;53.70
64833;HTU21D;51290;45.060;38.948;2023-04-25T15:03:40;16.86;53.72
64833;HTU21D;51290;45.060;38.948;2023-04-25T15:06:06;16.79;53.72
64833;HTU21D;51290;45.060;38.948;2023-04-25T15:08:33;16.71;53.79
64833;HTU21D;51290;45.060;38.948;2023-04-25T15:11:00;16.65;53.91
64833;HTU21D;51290;45.060;38.948;2023-04-25T15:13:26;16.58;53.91
64833;HTU21D;51290;45.060;38.948;2023-04-25T15:15:52;16.50;54.05
64833;HTU21D;51290;45.060;38.948;2023-04-25T15:18:22;16.43;54.13
64833;HTU21D;51290;45.060;38.948;2023-04-25T15:20:52;16.34;54.20
64833;HTU21D;51290;45.060;38.948;2023-04-25T15:23:19;16.27;54.31
64833;HTU21D;51290;45.060;38.948;2023-04-25T15:25:45;16.19;54.46
64833;HTU21D;51290;45.060;38.948;2023-04-25T15:28:11;16.12;54.57
64833;HTU21D;51290;45.060;38.948;2023-04-25T15:30:40;16.04;54.69